CheckWX is a tool to help pilots better visualize weather data.  It is not intended as a substitute for an official pre-flight weather briefing.

01:57:52 UTC

CYWH TAF
Victoria Harbour Seaplane Base
Victoria, Canada
TAF CYWH 232338Z 2400/2405 09008KT P6SM SCT012 SCT030 BKN080 TEMPO 2400/2405 5SM -SHRA BR BKN012 BKN025 RMK NXT FCST WILL BE ISSUED AT 241515Z

Feb-24@
00:00 UTC

Feb-24 @ 00:00 UTC

Feb-24@
05:00 UTC

Feb-24 @ 05:00 UTC

TAF CYWH 232338Z 2400/2405 09008KT P6SM SCT012 SCT030 BKN080
Wind
  • 090° at 8 KTS
Cloud Levels
  • Scattered at 1,200' AGL
  • Scattered at 3,000' AGL
  • Broken at 8,000' AGL

Feb-24@
00:00 UTC

Feb-24 @ 00:00 UTC

Feb-24@
05:00 UTC

Feb-24 @ 05:00 UTC

TEMPO 2400/2405 5SM -SHRA BR BKN012 BKN025 RMK NXT FCST WILL BE ISSUED AT 241515Z

Temporary

Temporary Changes expected for less than half the time period

Conditions
Light Rain, Mist
Cloud Levels
  • Broken at 1,200' AGL
  • Broken at 2,500' AGL